createdAt,value
2023-05-12T00:00:11.378Z,7.47
2023-05-12T00:03:04.030Z,7.77
2023-05-12T00:05:31.656Z,7.73
2023-05-12T00:07:59.033Z,7.70
2023-05-12T00:10:28.553Z,7.23
2023-05-12T00:12:56.018Z,8.07
2023-05-12T00:15:23.336Z,8.30
2023-05-12T00:17:52.469Z,8.20
2023-05-12T00:20:20.058Z,8.50
2023-05-12T00:22:47.745Z,8.80
2023-05-12T00:25:14.908Z,8.57
2023-05-12T00:27:42.373Z,9.03
2023-05-12T00:30:10.585Z,8.07
2023-05-12T00:32:38.276Z,8.07
2023-05-12T00:35:05.650Z,8.40
2023-05-12T00:37:33.444Z,9.37
2023-05-12T00:40:01.044Z,8.57
2023-05-12T00:42:28.560Z,8.27
2023-05-12T00:44:55.707Z,7.50
2023-05-12T00:47:23.130Z,8.67
2023-05-12T00:49:50.872Z,8.93
2023-05-12T00:52:18.356Z,9.50
2023-05-12T00:54:46.678Z,8.10
2023-05-12T00:57:14.241Z,7.73
2023-05-12T00:59:41.383Z,8.23
2023-05-12T01:02:09.617Z,8.50
2023-05-12T01:04:38.876Z,8.67
2023-05-12T01:07:15.732Z,7.83
2023-05-12T01:09:42.956Z,7.77
2023-05-12T01:12:11.128Z,8.30
2023-05-12T01:14:39.311Z,8.53
2023-05-12T01:17:13.383Z,9.07
2023-05-12T01:19:54.715Z,8.90
2023-05-12T01:22:22.933Z,8.13
2023-05-12T01:24:57.266Z,9.30
2023-05-12T01:27:27.649Z,9.10
2023-05-12T01:30:00.025Z,8.83
2023-05-12T01:32:28.466Z,8.93
2023-05-12T01:34:55.752Z,8.47
2023-05-12T01:37:27.229Z,8.83
2023-05-12T01:39:55.469Z,9.43
2023-05-12T01:42:23.536Z,9.57
2023-05-12T01:44:51.317Z,8.63
2023-05-12T01:47:21.593Z,8.83
2023-05-12T01:50:08.406Z,8.80
2023-05-12T01:52:35.975Z,8.40
2023-05-12T01:55:04.668Z,8.40
2023-05-12T01:57:38.060Z,9.23
2023-05-12T02:00:05.893Z,8.37
2023-05-12T02:02:42.864Z,9.27
2023-05-12T02:05:11.651Z,8.80
2023-05-12T02:07:40.014Z,8.97
2023-05-12T02:10:08.162Z,9.60
2023-05-12T02:12:35.709Z,8.63
2023-05-12T02:15:02.961Z,8.70
2023-05-12T02:17:32.250Z,8.87
2023-05-12T02:20:02.818Z,9.07
2023-05-12T02:22:30.198Z,8.40
2023-05-12T02:24:59.037Z,8.57
2023-05-12T02:27:26.692Z,9.23
2023-05-12T02:29:54.544Z,9.43
2023-05-12T02:32:22.677Z,9.43
2023-05-12T02:34:52.799Z,9.10
2023-05-12T02:37:20.438Z,9.57
2023-05-12T02:39:47.605Z,9.27
2023-05-12T02:42:14.969Z,9.30
2023-05-12T02:44:42.290Z,9.53
2023-05-12T02:47:09.680Z,9.53
2023-05-12T02:49:36.822Z,9.63
2023-05-12T02:52:04.619Z,8.93
2023-05-12T02:54:31.740Z,9.43
2023-05-12T02:56:59.903Z,8.73
2023-05-12T02:59:27.595Z,8.57
2023-05-12T03:01:55.015Z,9.57
2023-05-12T03:04:22.317Z,9.47
2023-05-12T03:06:49.622Z,10.60
2023-05-12T03:09:16.764Z,9.80
2023-05-12T03:11:44.177Z,9.77
2023-05-12T03:14:11.304Z,9.63
2023-05-12T03:16:38.854Z,10.70
2023-05-12T03:19:05.985Z,9.60
2023-05-12T03:21:34.131Z,9.23
2023-05-12T03:24:01.894Z,8.40
2023-05-12T03:26:29.679Z,9.77
2023-05-12T03:28:57.154Z,8.27
2023-05-12T03:31:25.063Z,8.77
2023-05-12T03:33:52.294Z,9.27
2023-05-12T03:36:19.729Z,9.40
2023-05-12T03:38:46.813Z,9.20
2023-05-12T03:41:14.643Z,9.07
2023-05-12T03:43:41.861Z,8.97
2023-05-12T03:46:09.533Z,8.90
2023-05-12T03:48:37.511Z,9.03
2023-05-12T03:51:05.135Z,9.33
2023-05-12T03:53:32.412Z,9.53
2023-05-12T03:56:05.309Z,9.47
2023-05-12T03:58:33.572Z,9.83
2023-05-12T04:01:01.929Z,9.17
2023-05-12T04:03:29.788Z,9.73
2023-05-12T04:06:04.945Z,10.33
2023-05-12T04:08:32.534Z,10.27
2023-05-12T04:11:02.490Z,9.27
2023-05-12T04:13:33.692Z,9.70
2023-05-12T04:16:01.648Z,9.87
2023-05-12T04:18:30.490Z,10.10
2023-05-12T04:20:58.332Z,9.57
2023-05-12T04:23:26.159Z,9.40
2023-05-12T04:25:54.483Z,10.33
2023-05-12T04:28:22.116Z,9.90
2023-05-12T04:30:50.289Z,9.57
2023-05-12T04:33:18.157Z,9.23
2023-05-12T04:35:46.812Z,10.07
2023-05-12T04:38:14.917Z,9.83
2023-05-12T04:40:42.468Z,10.33
2023-05-12T04:44:00.122Z,10.00
2023-05-12T04:45:59.776Z,10.70
2023-05-12T04:48:29.246Z,10.07
2023-05-12T04:51:00.354Z,10.23
2023-05-12T04:53:28.326Z,9.97
2023-05-12T04:55:56.769Z,9.67
2023-05-12T04:58:26.178Z,10.23
2023-05-12T05:00:54.219Z,10.27
2023-05-12T05:03:22.055Z,10.00
2023-05-12T05:05:50.149Z,9.93
2023-05-12T05:08:18.545Z,8.60
2023-05-12T05:10:46.726Z,7.93
2023-05-12T05:13:14.699Z,8.83
2023-05-12T05:15:50.320Z,9.23
2023-05-12T05:18:18.063Z,7.83
2023-05-12T05:23:17.937Z,7.57
2023-05-12T05:25:45.766Z,8.23
2023-05-12T05:28:13.625Z,5.37
2023-05-12T05:30:41.846Z,6.43
2023-05-12T05:33:09.697Z,7.03
2023-05-12T05:35:37.520Z,7.03
2023-05-12T05:38:04.864Z,5.00
2023-05-12T05:40:41.648Z,6.30
2023-05-12T05:43:16.386Z,4.93
2023-05-12T05:45:44.328Z,5.10
2023-05-12T05:48:11.599Z,5.07
2023-05-12T05:50:39.444Z,5.10
2023-05-12T05:53:07.201Z,4.80
2023-05-12T05:55:35.060Z,4.40
2023-05-12T05:58:02.745Z,4.27
2023-05-12T06:00:30.765Z,5.07
2023-05-12T06:02:57.966Z,3.90
2023-05-12T06:05:26.053Z,4.13
2023-05-12T06:07:53.381Z,4.27
2023-05-12T06:10:21.248Z,4.60
2023-05-12T06:12:50.365Z,4.80
2023-05-12T06:15:18.894Z,5.23
2023-05-12T06:17:46.610Z,4.18
2023-05-12T06:20:14.555Z,4.10
2023-05-12T06:22:44.896Z,3.97
2023-05-12T06:25:12.611Z,3.78
2023-05-12T06:27:39.921Z,3.60
2023-05-12T06:30:08.254Z,3.88
2023-05-12T06:32:35.566Z,5.10
2023-05-12T06:35:03.062Z,37.72
2023-05-12T06:37:30.327Z,3.80
2023-05-12T06:39:57.808Z,4.18
2023-05-12T06:42:25.805Z,3.80
2023-05-12T06:44:53.256Z,4.40
2023-05-12T06:47:21.551Z,2.83
2023-05-12T06:49:50.926Z,3.53
2023-05-12T06:52:18.232Z,3.78
2023-05-12T06:54:45.633Z,3.28
2023-05-12T06:57:12.770Z,3.25
2023-05-12T06:59:40.119Z,3.35
2023-05-12T07:02:07.220Z,3.20
2023-05-12T07:04:36.129Z,3.20
2023-05-12T07:07:03.473Z,3.85
2023-05-12T07:09:30.932Z,3.55
2023-05-12T07:11:59.237Z,3.67
2023-05-12T07:14:26.811Z,3.60
2023-05-12T07:16:54.184Z,3.65
2023-05-12T07:19:21.625Z,3.75
2023-05-12T07:21:48.783Z,3.03
2023-05-12T07:24:16.773Z,3.30
2023-05-12T07:26:44.744Z,2.88
2023-05-12T07:29:13.803Z,2.88
2023-05-12T07:31:41.328Z,3.08
2023-05-12T07:34:08.909Z,3.33
2023-05-12T07:36:36.263Z,2.65
2023-05-12T07:39:03.736Z,2.90
2023-05-12T07:41:32.550Z,3.65
2023-05-12T07:44:02.535Z,3.45
2023-05-12T07:46:29.813Z,3.35
2023-05-12T07:48:57.521Z,2.92
2023-05-12T07:51:24.718Z,2.67
2023-05-12T07:53:52.404Z,2.70
2023-05-12T07:56:19.630Z,2.58
2023-05-12T07:58:47.583Z,2.35
2023-05-12T08:01:15.337Z,2.83
2023-05-12T08:03:43.046Z,3.00
2023-05-12T08:06:10.702Z,2.67
2023-05-12T08:08:38.191Z,2.28
2023-05-12T08:11:05.896Z,2.58
2023-05-12T08:13:33.560Z,2.30
2023-05-12T08:16:00.724Z,4.07
2023-05-12T08:18:28.300Z,2.75
2023-05-12T08:20:56.202Z,2.63
2023-05-12T08:23:23.652Z,2.28
2023-05-12T08:25:50.905Z,2.22
2023-05-12T08:28:18.649Z,2.47
2023-05-12T08:30:45.968Z,3.10
2023-05-12T08:33:13.829Z,2.50
2023-05-12T08:35:41.081Z,2.47
2023-05-12T08:38:08.905Z,4.20
2023-05-12T08:40:47.110Z,2.00
2023-05-12T08:43:26.145Z,4.28
2023-05-12T08:45:58.473Z,2.42
2023-05-12T08:48:28.101Z,2.67
2023-05-12T08:50:56.987Z,2.08
2023-05-12T08:53:28.420Z,4.72
2023-05-12T08:57:09.615Z,2.80
2023-05-12T08:58:46.709Z,2.97
2023-05-12T09:01:15.183Z,2.08
2023-05-12T09:03:42.858Z,2.90
2023-05-12T09:06:11.790Z,2.35
2023-05-12T09:08:40.771Z,2.90
2023-05-12T09:11:11.506Z,2.47
2023-05-12T09:13:52.585Z,2.15
2023-05-12T09:16:24.483Z,2.10
2023-05-12T09:18:57.874Z,1.85
2023-05-12T09:21:26.514Z,2.17
2023-05-12T09:24:01.016Z,2.95
2023-05-12T09:26:29.073Z,2.05
2023-05-12T09:29:08.880Z,2.35
2023-05-12T09:31:36.580Z,2.58
2023-05-12T09:34:10.398Z,2.47
2023-05-12T09:36:37.607Z,2.22
2023-05-12T09:39:07.395Z,2.00
2023-05-12T09:41:38.945Z,2.50
2023-05-12T09:44:08.618Z,2.22
2023-05-12T09:46:36.979Z,2.63
2023-05-12T09:49:04.429Z,2.25
2023-05-12T09:51:32.329Z,2.60
2023-05-12T09:54:01.267Z,1.98
2023-05-12T09:56:32.453Z,2.75
2023-05-12T09:59:03.736Z,1.80
2023-05-12T10:01:31.600Z,2.33
2023-05-12T10:03:59.562Z,2.08
2023-05-12T10:06:30.281Z,2.50
2023-05-12T10:09:06.639Z,7.05
2023-05-12T10:11:34.393Z,2.40
2023-05-12T10:14:02.328Z,1.80
2023-05-12T10:16:29.994Z,1.65
2023-05-12T10:18:58.352Z,1.73
2023-05-12T10:21:26.371Z,1.85
2023-05-12T10:23:54.809Z,2.10
2023-05-12T10:26:23.597Z,2.30
2023-05-12T10:28:53.308Z,2.00
2023-05-12T10:31:22.440Z,2.00
2023-05-12T10:33:58.087Z,2.35
2023-05-12T10:36:26.180Z,2.88
2023-05-12T10:38:54.986Z,2.05
2023-05-12T10:41:32.871Z,2.10
2023-05-12T10:44:01.373Z,1.83
2023-05-12T10:46:30.726Z,2.10
2023-05-12T10:48:59.593Z,2.20
2023-05-12T10:51:31.883Z,2.10
2023-05-12T10:54:02.310Z,2.42
2023-05-12T10:56:39.434Z,1.70
2023-05-12T10:59:19.394Z,2.38
2023-05-12T11:01:58.930Z,2.45
2023-05-12T11:04:50.563Z,1.98
2023-05-12T11:07:24.482Z,2.88
2023-05-12T11:09:57.575Z,1.90
2023-05-12T11:12:28.128Z,2.60
2023-05-12T11:14:55.696Z,1.85
2023-05-12T11:17:23.074Z,2.47
2023-05-12T11:19:51.352Z,2.40
2023-05-12T11:22:21.606Z,2.30
2023-05-12T11:24:50.698Z,2.50
2023-05-12T11:27:19.660Z,1.95
2023-05-12T11:29:57.459Z,2.10
2023-05-12T11:32:24.764Z,2.30
2023-05-12T11:34:52.726Z,2.45
2023-05-12T11:37:21.280Z,2.38
2023-05-12T11:39:49.304Z,1.83
2023-05-12T11:42:19.765Z,2.20
2023-05-12T11:44:49.530Z,1.90
2023-05-12T11:47:19.192Z,2.38
2023-05-12T11:49:51.087Z,2.67
2023-05-12T11:52:20.019Z,4.93
2023-05-12T11:55:00.996Z,3.75
2023-05-12T11:57:33.931Z,2.65
2023-05-12T12:00:10.316Z,2.38
2023-05-12T12:02:39.791Z,3.20
2023-05-12T12:05:18.708Z,3.72
2023-05-12T12:07:46.226Z,1.80
2023-05-12T12:10:15.911Z,2.20
2023-05-12T12:12:44.386Z,2.08
2023-05-12T12:15:13.017Z,2.10
2023-05-12T12:17:40.960Z,2.72
2023-05-12T12:20:09.386Z,2.47
2023-05-12T12:22:36.769Z,2.55
2023-05-12T12:25:04.713Z,2.28
2023-05-12T12:27:32.069Z,1.98
2023-05-12T12:29:59.721Z,2.65
2023-05-12T12:32:27.429Z,2.13
2023-05-12T12:34:59.798Z,2.20
2023-05-12T12:37:27.146Z,2.03
2023-05-12T12:39:55.814Z,1.75
2023-05-12T12:42:23.174Z,1.92
2023-05-12T12:44:51.567Z,2.22
2023-05-12T12:47:18.803Z,2.25
2023-05-12T12:49:47.007Z,2.30
2023-05-12T12:52:14.893Z,4.95
2023-05-12T12:54:42.404Z,1.90
2023-05-12T12:57:09.621Z,1.90
2023-05-12T12:59:37.858Z,2.00
2023-05-12T13:02:05.248Z,1.75
2023-05-12T13:04:34.227Z,2.40
2023-05-12T13:07:01.395Z,2.20
2023-05-12T13:09:29.298Z,2.22
2023-05-12T13:11:56.492Z,2.55
2023-05-12T13:14:25.075Z,1.90
2023-05-12T13:16:53.119Z,2.05
2023-05-12T13:19:20.703Z,2.13
2023-05-12T13:21:48.014Z,2.45
2023-05-12T13:24:15.813Z,1.98
2023-05-12T13:26:43.359Z,2.00
2023-05-12T13:29:11.024Z,2.30
2023-05-12T13:31:38.851Z,2.47
2023-05-12T13:34:06.509Z,2.03
2023-05-12T13:36:34.865Z,2.03
2023-05-12T13:39:03.884Z,2.83
2023-05-12T13:41:31.495Z,2.55
2023-05-12T13:43:58.973Z,2.33
2023-05-12T13:46:26.306Z,2.05
2023-05-12T13:48:54.794Z,2.53
2023-05-12T13:51:22.955Z,2.00
2023-05-12T13:53:50.998Z,2.95
2023-05-12T13:56:19.015Z,1.98
2023-05-12T13:58:47.900Z,2.38
2023-05-12T14:01:15.291Z,2.58
2023-05-12T14:03:42.874Z,5.85
2023-05-12T14:06:10.849Z,2.20
2023-05-12T14:08:38.664Z,2.20
2023-05-12T14:11:09.186Z,2.35
2023-05-12T14:13:36.649Z,2.50
2023-05-12T14:16:04.822Z,1.80
2023-05-12T14:18:32.632Z,4.10
2023-05-12T14:21:00.008Z,2.28
2023-05-12T14:23:36.360Z,2.05
2023-05-12T14:26:04.502Z,2.10
2023-05-12T14:28:32.221Z,2.40
2023-05-12T14:30:59.533Z,2.35
2023-05-12T14:33:27.635Z,2.20
2023-05-12T14:36:05.878Z,1.88
2023-05-12T14:38:35.060Z,2.28
2023-05-12T14:41:02.753Z,2.40
2023-05-12T14:43:30.386Z,2.28
2023-05-12T14:45:57.725Z,2.08
2023-05-12T14:48:28.611Z,2.35
2023-05-12T14:50:56.768Z,2.20
2023-05-12T14:53:24.789Z,2.58
2023-05-12T14:55:52.840Z,2.40
2023-05-12T14:58:24.488Z,1.88
2023-05-12T15:00:52.713Z,1.90
2023-05-12T15:03:21.345Z,2.03
2023-05-12T15:08:21.846Z,2.05
2023-05-12T15:10:49.351Z,2.10
2023-05-12T15:13:20.346Z,2.30
2023-05-12T15:15:48.066Z,3.47
2023-05-12T15:18:15.592Z,2.45
2023-05-12T15:20:42.852Z,2.67
2023-05-12T15:23:10.416Z,2.67
2023-05-12T15:25:41.603Z,2.50
2023-05-12T15:28:09.053Z,2.60
2023-05-12T15:30:36.282Z,1.92
2023-05-12T15:33:04.394Z,1.98
2023-05-12T15:35:32.691Z,2.28
2023-05-12T15:38:00.356Z,2.22
2023-05-12T15:40:27.694Z,2.35
2023-05-12T15:42:55.534Z,2.70
2023-05-12T15:45:22.878Z,2.30
2023-05-12T15:47:50.890Z,2.67
2023-05-12T15:50:22.431Z,2.92
2023-05-12T15:52:50.154Z,2.55
2023-05-12T15:55:17.651Z,2.30
2023-05-12T15:57:45.259Z,2.50
2023-05-12T16:00:13.301Z,2.03
2023-05-12T16:02:41.104Z,2.47
2023-05-12T16:05:10.134Z,2.65
2023-05-12T16:07:38.838Z,2.30
2023-05-12T16:10:06.583Z,2.45
2023-05-12T16:12:34.282Z,3.15
2023-05-12T16:15:02.264Z,2.15
2023-05-12T16:17:29.806Z,3.08
2023-05-12T16:19:57.264Z,3.28
2023-05-12T16:22:24.789Z,2.47
2023-05-12T16:24:53.804Z,2.10
2023-05-12T16:27:23.683Z,2.40
2023-05-12T16:29:53.469Z,2.40
2023-05-12T16:32:21.151Z,2.08
2023-05-12T16:34:48.643Z,2.25
2023-05-12T16:37:16.146Z,2.47
2023-05-12T16:39:43.455Z,2.53
2023-05-12T16:42:10.856Z,4.55
2023-05-12T16:44:38.069Z,2.05
2023-05-12T16:47:06.034Z,2.50
2023-05-12T16:49:33.237Z,2.78
2023-05-12T16:52:00.853Z,3.00
2023-05-12T16:54:30.722Z,2.78
2023-05-12T16:56:59.128Z,2.70
2023-05-12T16:59:26.754Z,2.65
2023-05-12T17:01:54.427Z,3.75
2023-05-12T17:04:21.717Z,5.60
2023-05-12T17:06:50.233Z,3.97
2023-05-12T17:09:18.183Z,2.55
2023-05-12T17:11:45.698Z,3.05
2023-05-12T17:14:12.937Z,2.88
2023-05-12T17:16:40.844Z,2.75
2023-05-12T17:21:39.410Z,2.42
2023-05-12T17:24:08.214Z,2.47
2023-05-12T17:26:36.089Z,2.65
2023-05-12T17:29:03.784Z,3.33
2023-05-12T17:31:31.352Z,11.18
2023-05-12T17:33:58.652Z,5.75
2023-05-12T17:36:26.376Z,2.88
2023-05-12T17:38:53.723Z,3.15
2023-05-12T17:41:21.509Z,2.38
2023-05-12T17:43:48.729Z,2.80
2023-05-12T17:46:16.800Z,2.50
2023-05-12T17:48:44.060Z,2.40
2023-05-12T17:51:11.580Z,2.88
2023-05-12T17:53:38.966Z,2.90
2023-05-12T17:56:06.820Z,2.78
2023-05-12T17:58:34.411Z,7.32
2023-05-12T18:01:03.849Z,4.90
2023-05-12T18:03:32.014Z,5.00
2023-05-12T18:05:59.542Z,3.92
2023-05-12T18:08:27.324Z,4.05
2023-05-12T18:10:54.852Z,3.47
2023-05-12T18:13:22.069Z,4.20
2023-05-12T18:15:50.290Z,5.45
2023-05-12T18:18:17.882Z,4.93
2023-05-12T18:20:47.573Z,4.47
2023-05-12T18:23:14.860Z,4.10
2023-05-12T18:25:43.059Z,4.72
2023-05-12T18:28:10.248Z,6.20
2023-05-12T18:30:37.730Z,9.20
2023-05-12T18:33:05.026Z,4.68
2023-05-12T18:35:32.754Z,4.88
2023-05-12T18:37:59.944Z,4.45
2023-05-12T18:40:27.244Z,6.30
2023-05-12T18:42:54.920Z,8.77
2023-05-12T18:45:22.950Z,10.07
2023-05-12T18:47:51.059Z,17.20
2023-05-12T18:50:18.519Z,7.78
2023-05-12T18:52:46.382Z,5.53
2023-05-12T18:55:14.011Z,16.58
2023-05-12T18:57:42.247Z,10.90
2023-05-12T19:00:10.404Z,14.20
2023-05-12T19:02:38.467Z,9.95
2023-05-12T19:05:06.793Z,8.80
2023-05-12T19:07:34.810Z,9.00
2023-05-12T19:10:02.303Z,7.47
2023-05-12T19:12:29.950Z,9.38
2023-05-12T19:14:57.234Z,9.07
2023-05-12T19:17:24.821Z,9.32
2023-05-12T19:19:53.386Z,9.07
2023-05-12T19:22:21.067Z,8.93
2023-05-12T19:24:49.259Z,9.05
2023-05-12T19:27:17.040Z,9.98
2023-05-12T19:29:44.316Z,9.55
2023-05-12T19:32:12.080Z,8.32
2023-05-12T19:34:39.324Z,8.40
2023-05-12T19:37:06.906Z,9.20
2023-05-12T19:39:34.267Z,8.63
2023-05-12T19:42:02.224Z,11.00
2023-05-12T19:44:30.260Z,10.73
2023-05-12T19:47:04.635Z,6.97
2023-05-12T19:49:36.461Z,7.13
2023-05-12T19:52:06.182Z,8.23
2023-05-12T19:54:33.664Z,10.03
2023-05-12T19:57:02.050Z,9.53
2023-05-12T19:59:29.436Z,10.37
2023-05-12T20:01:57.037Z,10.10
2023-05-12T20:04:25.691Z,9.63
2023-05-12T20:06:54.651Z,9.10
2023-05-12T20:09:24.870Z,8.13
2023-05-12T20:11:53.221Z,8.00
2023-05-12T20:14:20.803Z,8.10
2023-05-12T20:16:48.605Z,7.73
2023-05-12T20:19:17.034Z,7.03
2023-05-12T20:21:44.614Z,6.67
2023-05-12T20:24:12.082Z,6.07
2023-05-12T20:26:40.285Z,5.90
2023-05-12T20:29:07.509Z,6.47
2023-05-12T20:31:35.413Z,6.20
2023-05-12T20:34:02.889Z,8.97
2023-05-12T20:36:30.594Z,11.47
2023-05-12T20:38:58.472Z,8.17
2023-05-12T20:41:26.063Z,7.40
2023-05-12T20:43:53.463Z,7.63
2023-05-12T20:46:22.160Z,9.03
2023-05-12T20:48:49.833Z,10.13
2023-05-12T20:51:17.483Z,10.87
2023-05-12T20:53:44.760Z,7.80
2023-05-12T20:56:13.125Z,7.63
2023-05-12T20:58:40.854Z,6.57
2023-05-12T21:01:08.386Z,7.27
2023-05-12T21:03:37.364Z,5.73
2023-05-12T21:06:05.807Z,6.20
2023-05-12T21:08:33.217Z,6.10
2023-05-12T21:11:00.997Z,5.70
2023-05-12T21:13:28.188Z,5.33
2023-05-12T21:15:56.621Z,4.97
2023-05-12T21:18:23.883Z,5.40
2023-05-12T21:20:51.344Z,5.60
2023-05-12T21:23:18.706Z,5.30
2023-05-12T21:25:46.585Z,5.73
2023-05-12T21:28:14.093Z,5.70
2023-05-12T21:30:41.534Z,6.10
2023-05-12T21:33:09.039Z,6.50
2023-05-12T21:35:37.021Z,6.13
2023-05-12T21:38:06.154Z,4.97
2023-05-12T21:40:34.268Z,6.47
2023-05-12T21:43:02.113Z,6.40
2023-05-12T21:45:30.138Z,5.93
2023-05-12T21:47:57.800Z,5.07
2023-05-12T21:50:25.904Z,6.67
2023-05-12T21:52:53.440Z,7.23
2023-05-12T21:55:21.348Z,7.23
2023-05-12T21:57:48.959Z,6.43
2023-05-12T22:00:19.981Z,7.13
2023-05-12T22:02:48.463Z,7.00
2023-05-12T22:05:16.022Z,6.67
2023-05-12T22:07:44.059Z,5.47
2023-05-12T22:10:12.017Z,6.83
2023-05-12T22:12:40.722Z,6.67
2023-05-12T22:15:08.508Z,5.80
2023-05-12T22:17:36.428Z,5.63
2023-05-12T22:20:04.311Z,6.40
2023-05-12T22:22:32.179Z,7.77
2023-05-12T22:24:59.689Z,7.07
2023-05-12T22:27:27.514Z,7.00
2023-05-12T22:29:56.856Z,7.13
2023-05-12T22:32:24.400Z,7.23
2023-05-12T22:34:54.758Z,8.10
2023-05-12T22:37:22.432Z,8.57
2023-05-12T22:39:49.542Z,8.47
2023-05-12T22:42:16.883Z,8.40
2023-05-12T22:44:43.945Z,8.07
2023-05-12T22:47:11.731Z,7.07
2023-05-12T22:49:39.260Z,7.00
2023-05-12T22:52:07.404Z,7.93
2023-05-12T22:54:34.624Z,8.03
2023-05-12T22:57:01.998Z,7.80
2023-05-12T22:59:29.508Z,8.13
2023-05-12T23:01:57.045Z,8.47
2023-05-12T23:04:24.257Z,9.33
2023-05-12T23:06:51.752Z,8.83
2023-05-12T23:09:18.909Z,9.90
2023-05-12T23:11:46.533Z,10.10
2023-05-12T23:14:13.885Z,9.60
2023-05-12T23:16:41.375Z,11.17
2023-05-12T23:19:08.740Z,9.70
2023-05-12T23:21:36.345Z,9.23
2023-05-12T23:24:03.630Z,10.67
2023-05-12T23:26:31.184Z,9.53
2023-05-12T23:28:58.462Z,8.73
2023-05-12T23:31:26.216Z,8.17
2023-05-12T23:33:53.546Z,8.27
2023-05-12T23:36:21.020Z,8.97
2023-05-12T23:38:52.844Z,8.40
2023-05-12T23:41:22.092Z,8.67
2023-05-12T23:43:49.154Z,8.47
2023-05-12T23:46:16.489Z,8.10
2023-05-12T23:48:43.642Z,7.43
2023-05-12T23:51:11.128Z,8.40
2023-05-12T23:53:38.205Z,8.60
2023-05-12T23:56:05.917Z,9.07
2023-05-12T23:58:33.046Z,9.87
